createdAt,value
2018-02-23T00:01:32.845Z,119.20
2018-02-23T00:04:01.839Z,80.77
2018-02-23T00:06:29.411Z,81.90
2018-02-23T00:08:56.970Z,117.17
2018-02-23T00:11:25.648Z,81.80
2018-02-23T00:13:53.182Z,72.50
2018-02-23T00:16:20.719Z,88.33
2018-02-23T00:18:49.098Z,123.50
2018-02-23T00:21:17.371Z,83.80
2018-02-23T00:23:45.710Z,73.93
2018-02-23T00:26:14.001Z,107.77
2018-02-23T00:28:41.569Z,100.33
2018-02-23T00:31:09.187Z,74.70
2018-02-23T00:33:36.722Z,74.43
2018-02-23T00:36:04.317Z,77.80
2018-02-23T00:38:32.477Z,70.30
2018-02-23T00:40:59.996Z,81.40
2018-02-23T00:43:27.524Z,72.50
2018-02-23T00:45:56.430Z,71.83
2018-02-23T00:48:23.960Z,78.13
2018-02-23T00:50:51.528Z,67.20
2018-02-23T00:53:19.588Z,71.10
2018-02-23T00:55:47.154Z,64.90
2018-02-23T00:58:15.623Z,62.83
2018-02-23T01:00:46.004Z,77.20
2018-02-23T01:03:14.409Z,70.83
2018-02-23T01:05:41.991Z,68.80
2018-02-23T01:08:11.091Z,73.60
2018-02-23T01:10:39.591Z,64.93
2018-02-23T01:13:07.112Z,81.90
2018-02-23T01:15:34.640Z,67.83
2018-02-23T01:18:02.968Z,67.73
2018-02-23T01:20:30.527Z,71.17
2018-02-23T01:22:58.068Z,80.60
2018-02-23T01:25:25.646Z,73.83
2018-02-23T01:27:53.230Z,75.73
2018-02-23T01:30:20.808Z,85.63
2018-02-23T01:32:49.144Z,72.30
2018-02-23T01:35:17.432Z,78.70
2018-02-23T01:37:44.974Z,83.00
2018-02-23T01:40:12.542Z,71.10
2018-02-23T01:42:40.990Z,73.67
2018-02-23T01:45:09.106Z,82.97
2018-02-23T01:47:37.452Z,66.80
2018-02-23T01:50:07.383Z,89.73
2018-02-23T01:52:34.972Z,88.67
2018-02-23T01:55:02.700Z,75.03
2018-02-23T01:57:30.262Z,76.63
2018-02-23T01:59:58.584Z,64.57
2018-02-23T02:02:26.926Z,70.17
2018-02-23T02:04:54.477Z,59.17
2018-02-23T02:07:22.276Z,88.17
2018-02-23T02:09:49.824Z,82.30
2018-02-23T02:12:18.643Z,68.80
2018-02-23T02:14:46.987Z,67.20
2018-02-23T02:17:14.552Z,68.57
2018-02-23T02:19:42.103Z,69.07
2018-02-23T02:22:09.712Z,63.13
2018-02-23T02:24:37.268Z,78.27
2018-02-23T02:27:04.812Z,92.80
2018-02-23T02:29:32.424Z,62.50
2018-02-23T02:31:59.960Z,58.73
2018-02-23T02:34:28.339Z,67.80
2018-02-23T02:36:55.919Z,65.87
2018-02-23T02:39:24.121Z,71.47
2018-02-23T02:41:51.719Z,76.00
2018-02-23T02:44:20.115Z,61.80
2018-02-23T02:46:47.794Z,70.87
2018-02-23T02:49:15.368Z,83.60
2018-02-23T02:51:42.915Z,76.80
2018-02-23T02:54:10.462Z,74.60
2018-02-23T02:56:38.148Z,71.87
2018-02-23T02:59:07.059Z,66.50
2018-02-23T03:01:34.604Z,72.00
2018-02-23T03:04:02.172Z,67.70
2018-02-23T03:06:29.721Z,88.20
2018-02-23T03:08:57.236Z,86.67
2018-02-23T03:11:25.549Z,103.47
2018-02-23T03:13:54.646Z,74.57
2018-02-23T03:16:22.169Z,79.30
2018-02-23T03:18:49.778Z,81.57
2018-02-23T03:21:17.322Z,102.90
2018-02-23T03:23:44.887Z,87.27
2018-02-23T03:26:13.127Z,70.77
2018-02-23T03:28:41.458Z,76.77
2018-02-23T03:31:09.177Z,64.30
2018-02-23T03:33:37.579Z,76.77
2018-02-23T03:49:00.169Z,72.53
2018-02-23T03:51:28.155Z,76.70
2018-02-23T03:53:55.708Z,68.77
2018-02-23T03:56:24.050Z,71.80
2018-02-23T03:58:51.604Z,75.43
2018-02-23T04:01:19.122Z,73.23
2018-02-23T04:03:47.534Z,64.30
2018-02-23T04:06:15.070Z,74.30
2018-02-23T04:08:43.393Z,67.23
2018-02-23T04:11:10.959Z,71.73
2018-02-23T04:13:38.491Z,69.43
2018-02-23T04:16:06.052Z,72.03
2018-02-23T04:18:34.478Z,63.10
2018-02-23T04:21:02.009Z,64.60
2018-02-23T04:23:30.388Z,64.30
2018-02-23T04:25:58.390Z,82.33
2018-02-23T04:28:25.937Z,66.47
2018-02-23T04:30:54.267Z,72.47
2018-02-23T04:33:21.821Z,61.57
2018-02-23T04:35:49.375Z,71.80
2018-02-23T04:38:16.975Z,75.00
2018-02-23T04:40:44.586Z,63.67
2018-02-23T04:43:12.882Z,68.10
2018-02-23T04:45:40.451Z,65.73
2018-02-23T04:48:08.014Z,65.17
2018-02-23T04:50:35.563Z,74.50
2018-02-23T04:53:03.524Z,66.80
2018-02-23T04:55:31.118Z,61.17
2018-02-23T04:57:58.723Z,72.77
2018-02-23T05:00:27.938Z,70.47
2018-02-23T05:02:55.642Z,71.77
2018-02-23T05:05:23.185Z,66.97
2018-02-23T05:07:51.568Z,63.43
2018-02-23T05:10:19.180Z,61.37
2018-02-23T05:12:47.506Z,67.30
2018-02-23T05:15:15.039Z,76.43
2018-02-23T05:17:42.607Z,67.63
2018-02-23T05:20:10.135Z,67.60
2018-02-23T05:22:37.696Z,70.27
2018-02-23T05:25:07.307Z,73.67
2018-02-23T05:27:34.909Z,66.33
2018-02-23T05:30:02.450Z,69.83
2018-02-23T05:32:30.024Z,68.37
2018-02-23T05:34:57.694Z,65.73
2018-02-23T05:37:26.104Z,68.07
2018-02-23T05:39:53.686Z,69.60
2018-02-23T05:42:22.023Z,74.30
2018-02-23T05:44:49.600Z,68.47
2018-02-23T05:47:17.150Z,75.13
2018-02-23T05:49:45.350Z,64.40
2018-02-23T05:52:12.889Z,72.27
2018-02-23T05:54:40.447Z,64.27
2018-02-23T05:57:08.044Z,66.67
2018-02-23T05:59:35.560Z,80.37
2018-02-23T06:02:03.422Z,75.00
2018-02-23T06:04:31.072Z,75.97
2018-02-23T06:06:58.641Z,70.23
2018-02-23T06:09:26.172Z,75.60
2018-02-23T06:11:53.765Z,75.33
2018-02-23T06:14:21.310Z,68.83
2018-02-23T06:16:48.839Z,79.13
2018-02-23T06:19:23.557Z,78.93
2018-02-23T06:21:51.908Z,79.10
2018-02-23T06:24:19.456Z,73.33
2018-02-23T06:26:47.101Z,71.63
2018-02-23T06:29:14.637Z,69.43
2018-02-23T06:31:42.221Z,76.53
2018-02-23T06:34:09.796Z,70.77
2018-02-23T06:36:37.382Z,76.13
2018-02-23T06:39:05.678Z,80.63
2018-02-23T06:41:35.897Z,72.90
2018-02-23T06:44:04.215Z,78.87
2018-02-23T06:46:32.991Z,70.27
2018-02-23T06:49:00.603Z,73.03
2018-02-23T06:51:28.171Z,79.67
2018-02-23T06:53:55.769Z,73.37
2018-02-23T06:56:23.332Z,79.23
2018-02-23T06:58:51.419Z,81.10
2018-02-23T07:01:18.989Z,73.57
2018-02-23T07:03:46.569Z,82.10
2018-02-23T07:06:14.995Z,78.80
2018-02-23T07:08:42.547Z,71.50
2018-02-23T07:11:11.864Z,77.03
2018-02-23T07:13:39.401Z,71.17
2018-02-23T07:16:06.975Z,82.07
2018-02-23T07:18:34.548Z,71.37
2018-02-23T07:21:03.017Z,68.60
2018-02-23T07:23:30.601Z,70.83
2018-02-23T07:25:58.258Z,83.10
2018-02-23T07:28:26.087Z,76.87
2018-02-23T07:30:53.675Z,80.47
2018-02-23T07:33:21.250Z,98.67
2018-02-23T07:35:48.823Z,76.07
2018-02-23T07:38:16.384Z,76.73
2018-02-23T07:40:44.782Z,81.90
2018-02-23T07:43:12.794Z,77.00
2018-02-23T07:45:40.344Z,89.03
2018-02-23T07:48:08.644Z,85.03
2018-02-23T07:50:36.544Z,78.50
2018-02-23T07:53:04.345Z,59.83
2018-02-23T07:55:32.466Z,75.20
2018-02-23T07:58:00.015Z,65.37
2018-02-23T08:00:27.612Z,71.67
2018-02-23T08:02:55.199Z,89.53
2018-02-23T08:05:23.530Z,73.43
2018-02-23T08:07:51.189Z,68.97
2018-02-23T08:10:18.733Z,68.83
2018-02-23T08:12:46.337Z,73.77
2018-02-23T08:15:14.787Z,71.43
2018-02-23T08:17:42.361Z,70.13
2018-02-23T08:20:09.921Z,67.73
2018-02-23T08:22:38.049Z,73.93
2018-02-23T08:25:07.667Z,76.60
2018-02-23T08:27:35.212Z,64.27
2018-02-23T08:30:08.065Z,73.20
2018-02-23T08:32:37.114Z,83.17
2018-02-23T08:35:08.187Z,65.93
2018-02-23T08:50:31.418Z,61.57
2018-02-23T08:52:59.829Z,67.50
2018-02-23T08:55:28.872Z,72.87
2018-02-23T08:57:57.284Z,71.50
2018-02-23T09:00:27.126Z,71.30
2018-02-23T09:02:55.499Z,65.10
2018-02-23T09:05:23.084Z,67.10
2018-02-23T09:07:51.839Z,76.27
2018-02-23T09:10:19.484Z,71.03
2018-02-23T09:12:49.258Z,72.73
2018-02-23T09:15:18.132Z,67.53
2018-02-23T09:17:47.133Z,73.93
2018-02-23T09:20:15.076Z,69.17
2018-02-23T09:22:43.542Z,82.73
2018-02-23T09:25:11.983Z,76.73
2018-02-23T09:27:40.094Z,94.63
2018-02-23T09:30:08.744Z,70.40
2018-02-23T09:32:38.161Z,72.43
2018-02-23T09:35:07.674Z,81.40
2018-02-23T09:37:36.018Z,66.83
2018-02-23T09:40:05.423Z,74.97
2018-02-23T09:55:28.511Z,69.30
2018-02-23T09:57:56.077Z,68.37
2018-02-23T10:00:23.593Z,67.50
2018-02-23T10:02:51.147Z,66.33
2018-02-23T10:05:18.704Z,62.67
2018-02-23T10:10:51.973Z,75.30
2018-02-23T10:13:19.560Z,69.80
2018-02-23T10:15:48.152Z,60.30
2018-02-23T10:18:15.770Z,72.67
2018-02-23T10:20:45.255Z,63.63
2018-02-23T10:23:13.557Z,64.10
2018-02-23T10:25:41.135Z,64.00
2018-02-23T10:28:08.722Z,67.83
2018-02-23T10:30:36.269Z,70.23
2018-02-23T10:33:04.505Z,82.10
2018-02-23T10:35:34.771Z,73.87
2018-02-23T10:38:02.618Z,74.03
2018-02-23T10:40:30.178Z,75.13
2018-02-23T10:42:58.505Z,68.20
2018-02-23T10:45:27.288Z,75.33
2018-02-23T10:47:54.839Z,73.80
2018-02-23T10:50:23.211Z,74.53
2018-02-23T10:52:50.815Z,85.47
2018-02-23T10:55:18.406Z,77.70
2018-02-23T10:57:46.647Z,74.83
2018-02-23T11:00:14.325Z,70.33
2018-02-23T11:02:41.979Z,77.07
2018-02-23T11:05:10.520Z,67.90
2018-02-23T11:07:38.252Z,71.60
2018-02-23T11:10:08.012Z,69.27
2018-02-23T11:12:37.094Z,74.37
2018-02-23T11:15:06.312Z,69.57
2018-02-23T11:17:33.882Z,63.87
2018-02-23T11:20:02.228Z,68.37
2018-02-23T11:22:29.779Z,68.63
2018-02-23T11:24:57.392Z,66.07
2018-02-23T11:27:26.432Z,62.93
2018-02-23T11:29:54.255Z,79.57
2018-02-23T11:32:21.854Z,72.20
2018-02-23T11:34:50.173Z,79.00
2018-02-23T11:37:17.801Z,76.07
2018-02-23T11:39:46.121Z,73.23
2018-02-23T11:42:14.320Z,77.07
2018-02-23T11:44:41.992Z,75.80
2018-02-23T11:47:10.163Z,74.80
2018-02-23T11:49:37.776Z,75.30
2018-02-23T11:52:05.397Z,74.90
2018-02-23T11:54:32.972Z,84.93
2018-02-23T11:57:01.202Z,75.30
2018-02-23T11:59:28.792Z,78.20
2018-02-23T12:01:56.619Z,81.10
2018-02-23T12:04:25.780Z,79.47
2018-02-23T12:06:53.463Z,73.80
2018-02-23T12:09:21.793Z,81.03
2018-02-23T12:11:49.348Z,63.87
2018-02-23T12:14:17.130Z,74.67
2018-02-23T12:16:46.185Z,84.60
2018-02-23T12:19:13.822Z,76.70
2018-02-23T12:21:41.411Z,72.30
2018-02-23T12:24:09.723Z,76.53
2018-02-23T12:26:37.674Z,70.50
2018-02-23T12:29:05.250Z,71.97
2018-02-23T12:31:32.807Z,69.30
2018-02-23T12:34:00.685Z,69.37
2018-02-23T12:36:31.315Z,76.03
2018-02-23T12:39:01.092Z,66.50
2018-02-23T12:41:28.870Z,66.27
2018-02-23T12:43:56.480Z,77.63
2018-02-23T12:46:25.135Z,72.73
2018-02-23T12:48:52.812Z,73.10
2018-02-23T12:51:20.410Z,75.83
2018-02-23T12:53:49.564Z,71.77
2018-02-23T12:56:17.665Z,79.43
2018-02-23T12:58:45.987Z,73.73
2018-02-23T13:01:14.832Z,74.40
2018-02-23T13:03:42.414Z,69.23
2018-02-23T13:06:10.452Z,75.50
2018-02-23T13:08:38.926Z,89.80
2018-02-23T13:11:07.300Z,81.90
2018-02-23T13:13:35.723Z,82.77
2018-02-23T13:16:04.000Z,78.63
2018-02-23T13:18:31.568Z,92.80
2018-02-23T13:20:59.160Z,85.47
2018-02-23T13:23:26.965Z,83.83
2018-02-23T13:25:55.528Z,94.27
2018-02-23T13:28:28.674Z,95.87
2018-02-23T13:30:57.011Z,89.73
2018-02-23T13:33:26.160Z,91.13
2018-02-23T13:35:53.806Z,92.33
2018-02-23T13:38:21.504Z,92.73
2018-02-23T13:40:55.072Z,96.10
2018-02-23T13:43:23.481Z,89.67
2018-02-23T13:45:51.485Z,94.77
2018-02-23T13:48:20.923Z,87.63
2018-02-23T13:50:49.425Z,98.60
2018-02-23T13:53:17.961Z,95.70
2018-02-23T13:55:46.433Z,97.77
2018-02-23T13:58:14.161Z,98.23
2018-02-23T14:00:43.764Z,96.17
2018-02-23T14:03:11.554Z,87.43
2018-02-23T14:05:40.607Z,99.47
2018-02-23T14:08:08.660Z,97.43
2018-02-23T14:10:36.278Z,101.23
2018-02-23T14:13:03.905Z,93.10
2018-02-23T14:15:31.768Z,99.07
2018-02-23T14:17:59.901Z,86.53
2018-02-23T14:20:28.103Z,87.10
2018-02-23T14:22:55.675Z,97.57
2018-02-23T14:25:23.240Z,104.07
2018-02-23T14:27:50.917Z,105.20
2018-02-23T14:30:18.543Z,108.77
2018-02-23T14:32:47.189Z,102.03
2018-02-23T14:35:14.753Z,98.63
2018-02-23T14:37:42.821Z,97.43
2018-02-23T14:40:11.884Z,102.33
2018-02-23T14:42:39.471Z,101.50
2018-02-23T14:45:07.122Z,98.73
2018-02-23T14:47:34.831Z,108.07
2018-02-23T14:50:14.084Z,95.33
2018-02-23T14:52:42.600Z,100.77
2018-02-23T14:55:10.134Z,99.77
2018-02-23T14:57:37.715Z,101.97
2018-02-23T15:00:06.525Z,117.63
2018-02-23T15:02:34.060Z,102.70
2018-02-23T15:05:01.672Z,109.70
2018-02-23T15:07:30.731Z,98.27
2018-02-23T15:09:58.287Z,88.70
2018-02-23T15:12:25.847Z,97.57
2018-02-23T15:14:54.313Z,99.07
2018-02-23T15:17:22.074Z,90.37
2018-02-23T15:19:50.307Z,95.23
2018-02-23T15:22:18.637Z,99.33
2018-02-23T15:24:47.234Z,96.57
2018-02-23T15:27:14.842Z,90.37
2018-02-23T15:29:43.227Z,101.13
2018-02-23T15:32:30.645Z,97.07
2018-02-23T15:34:58.999Z,101.13
2018-02-23T15:37:27.491Z,100.60
2018-02-23T15:39:55.160Z,100.43
2018-02-23T15:42:24.151Z,106.23
2018-02-23T15:44:52.483Z,94.13
2018-02-23T15:47:23.014Z,101.67
2018-02-23T15:50:07.618Z,111.93
2018-02-23T15:52:35.288Z,105.17
2018-02-23T15:55:04.244Z,114.83
2018-02-23T15:57:33.500Z,98.03
2018-02-23T16:00:01.108Z,99.63
2018-02-23T16:02:28.700Z,104.73
2018-02-23T16:04:56.489Z,94.83
2018-02-23T16:07:24.977Z,103.10
2018-02-23T16:09:52.537Z,101.30
2018-02-23T16:12:21.158Z,102.40
2018-02-23T16:14:48.724Z,110.97
2018-02-23T16:17:16.333Z,103.57
2018-02-23T16:19:43.988Z,104.47
2018-02-23T16:22:12.215Z,103.90
2018-02-23T16:24:39.844Z,106.10
2018-02-23T16:27:07.924Z,114.17
2018-02-23T16:29:35.525Z,107.20
2018-02-23T16:32:03.691Z,98.87
2018-02-23T16:34:31.291Z,108.07
2018-02-23T16:36:59.243Z,99.27
2018-02-23T16:39:26.811Z,99.77
2018-02-23T16:41:55.174Z,106.53
2018-02-23T16:44:22.751Z,112.70
2018-02-23T16:46:51.092Z,111.83
2018-02-23T16:49:18.904Z,115.23
2018-02-23T16:51:47.259Z,113.93
2018-02-23T16:54:15.561Z,110.47
2018-02-23T16:56:43.730Z,97.77
2018-02-23T16:59:11.319Z,98.27
2018-02-23T17:01:38.990Z,115.03
2018-02-23T17:04:06.768Z,108.50
2018-02-23T17:06:34.807Z,103.17
2018-02-23T17:09:02.392Z,108.10
2018-02-23T17:11:30.856Z,109.47
2018-02-23T17:13:59.037Z,109.57
2018-02-23T17:16:26.626Z,104.57
2018-02-23T17:18:55.322Z,105.30
2018-02-23T17:21:25.067Z,121.40
2018-02-23T17:23:52.686Z,113.80
2018-02-23T17:26:20.274Z,111.97
2018-02-23T17:28:49.281Z,106.10
2018-02-23T17:31:18.167Z,113.00
2018-02-23T17:33:45.740Z,110.37
2018-02-23T17:36:14.712Z,112.37
2018-02-23T17:38:42.357Z,104.80
2018-02-23T17:41:10.002Z,117.60
2018-02-23T17:43:38.027Z,104.13
2018-02-23T17:46:05.658Z,112.70
2018-02-23T17:48:34.978Z,104.87
2018-02-23T17:51:04.185Z,106.67
2018-02-23T17:53:32.048Z,104.20
2018-02-23T17:55:59.848Z,124.87
2018-02-23T17:58:28.090Z,98.40
2018-02-23T18:00:56.911Z,112.53
2018-02-23T18:03:26.308Z,103.47
2018-02-23T18:05:55.332Z,108.93
2018-02-23T18:08:23.172Z,109.83
2018-02-23T18:10:50.963Z,102.60
2018-02-23T18:13:18.735Z,101.30
2018-02-23T18:15:46.987Z,104.00
2018-02-23T18:18:14.757Z,117.20
2018-02-23T18:20:43.457Z,105.43
2018-02-23T18:23:11.394Z,110.07
2018-02-23T18:25:39.706Z,101.40
2018-02-23T18:28:07.401Z,92.70
2018-02-23T18:30:35.430Z,106.63
2018-02-23T18:33:03.290Z,111.13
2018-02-23T18:35:31.687Z,101.60
2018-02-23T18:38:01.116Z,103.07
2018-02-23T18:40:29.810Z,101.03
2018-02-23T18:42:57.422Z,100.37
2018-02-23T18:45:26.148Z,95.90
2018-02-23T18:47:55.205Z,109.03
2018-02-23T18:50:22.735Z,91.13
2018-02-23T18:52:50.297Z,96.03
2018-02-23T18:55:17.893Z,89.97
2018-02-23T18:57:46.521Z,102.57
2018-02-23T19:00:14.650Z,100.23
2018-02-23T19:02:42.693Z,99.43
2018-02-23T19:05:11.495Z,102.10
2018-02-23T19:07:40.378Z,100.93
2018-02-23T19:10:09.414Z,97.83
2018-02-23T19:12:37.543Z,100.43
2018-02-23T19:15:07.409Z,95.47
2018-02-23T19:17:35.748Z,103.77
2018-02-23T19:20:05.097Z,92.30
2018-02-23T19:32:13.486Z,98.70
2018-02-23T19:34:41.123Z,130.97
2018-02-23T19:37:08.860Z,87.30
2018-02-23T19:39:36.400Z,105.63
2018-02-23T19:42:03.975Z,105.43
2018-02-23T19:44:31.908Z,113.47
2018-02-23T19:46:59.473Z,121.33
2018-02-23T19:49:27.108Z,106.20
2018-02-23T19:51:55.118Z,100.80
2018-02-23T19:54:23.108Z,100.60
2018-02-23T19:56:51.159Z,95.77
2018-02-23T19:59:19.148Z,85.97
2018-02-23T20:01:47.584Z,97.30
2018-02-23T20:04:16.399Z,88.20
2018-02-23T20:06:44.167Z,88.30
2018-02-23T20:09:12.753Z,90.23
2018-02-23T20:11:40.406Z,87.43
2018-02-23T20:14:07.997Z,98.17
2018-02-23T20:16:35.737Z,97.53
2018-02-23T20:19:03.332Z,90.17
2018-02-23T20:21:31.263Z,91.50
2018-02-23T20:23:58.940Z,87.60
2018-02-23T20:26:27.273Z,93.40
2018-02-23T20:28:55.546Z,102.47
2018-02-23T20:31:25.710Z,98.07
2018-02-23T20:33:53.697Z,92.43
2018-02-23T20:36:21.306Z,102.53
2018-02-23T20:38:50.395Z,98.50
2018-02-23T20:41:18.203Z,101.47
2018-02-23T20:43:46.416Z,90.27
2018-02-23T20:46:14.923Z,98.00
2018-02-23T20:48:43.932Z,92.60
2018-02-23T20:51:11.891Z,95.40
2018-02-23T20:53:40.071Z,95.20
2018-02-23T20:56:07.887Z,97.17
2018-02-23T20:58:35.600Z,100.20
2018-02-23T21:01:03.276Z,92.67
2018-02-23T21:03:32.074Z,95.43
2018-02-23T21:06:00.412Z,119.27
2018-02-23T21:08:28.936Z,91.10
2018-02-23T21:10:57.090Z,102.20
2018-02-23T21:13:26.457Z,117.87
2018-02-23T21:15:54.043Z,83.40
2018-02-23T21:18:22.607Z,110.63
2018-02-23T21:20:51.059Z,78.57
2018-02-23T21:23:19.996Z,127.30
2018-02-23T21:25:48.525Z,116.40
2018-02-23T21:28:16.168Z,69.53
2018-02-23T21:30:43.863Z,86.07
2018-02-23T21:33:11.601Z,87.97
2018-02-23T21:35:39.900Z,78.30
2018-02-23T21:38:07.813Z,73.73
2018-02-23T21:40:35.407Z,93.40
2018-02-23T21:43:03.197Z,72.13
2018-02-23T21:45:31.806Z,90.07
2018-02-23T21:48:00.367Z,115.50
2018-02-23T21:50:27.901Z,93.40
2018-02-23T21:52:55.447Z,97.63
2018-02-23T21:55:24.453Z,109.40
2018-02-23T21:57:52.411Z,103.80
2018-02-23T22:00:21.067Z,97.47
2018-02-23T22:02:48.647Z,90.17
2018-02-23T22:05:16.340Z,85.97
2018-02-23T22:07:44.293Z,83.50
2018-02-23T22:10:13.595Z,76.77
2018-02-23T22:12:41.164Z,77.17
2018-02-23T22:15:08.780Z,85.87
2018-02-23T22:17:36.500Z,79.43
2018-02-23T22:20:06.061Z,79.47
2018-02-23T22:22:34.402Z,68.87
2018-02-23T22:25:01.976Z,72.13
2018-02-23T22:27:30.111Z,84.27
2018-02-23T22:29:58.231Z,65.77
2018-02-23T22:32:27.443Z,67.90
2018-02-23T22:34:55.788Z,61.90
2018-02-23T22:37:25.276Z,77.23
2018-02-23T22:39:54.460Z,64.80
2018-02-23T22:42:22.010Z,68.83
2018-02-23T22:44:50.330Z,62.30
2018-02-23T22:47:19.315Z,71.97
2018-02-23T22:49:47.911Z,65.00
2018-02-23T22:52:15.564Z,70.37
2018-02-23T22:54:44.639Z,60.30
2018-02-23T22:57:12.289Z,64.03
2018-02-23T22:59:40.462Z,62.83
2018-02-23T23:02:08.120Z,53.97
2018-02-23T23:04:36.488Z,63.57
2018-02-23T23:07:06.093Z,62.53
2018-02-23T23:09:34.252Z,56.87
2018-02-23T23:12:01.806Z,52.20
2018-02-23T23:14:30.261Z,57.97
2018-02-23T23:16:59.338Z,54.27
2018-02-23T23:19:28.260Z,53.80
2018-02-23T23:21:57.224Z,46.50
2018-02-23T23:24:24.783Z,47.23
2018-02-23T23:26:52.701Z,44.60
2018-02-23T23:29:21.151Z,45.23
2018-02-23T23:31:48.909Z,44.83
2018-02-23T23:34:16.446Z,47.33
2018-02-23T23:36:44.694Z,46.83
2018-02-23T23:39:12.288Z,45.50
2018-02-23T23:41:40.537Z,49.07
2018-02-23T23:44:08.958Z,45.60
2018-02-23T23:46:36.596Z,44.20
2018-02-23T23:49:04.176Z,39.23
2018-02-23T23:51:31.718Z,45.10
2018-02-23T23:53:59.775Z,46.43
2018-02-23T23:56:27.378Z,43.77
2018-02-23T23:58:54.934Z,44.70
